Wednesday, April 23, 2014
22:32 UTC
  |  Log In   |  Register Free
Airport Search:

John F Kennedy Memorial Airport
(KASX)

John F Kennedy Memorial Airport Diagram
No Airport Diagram Available

FAA data valid effective April 3, 2014 until May 29, 2014 (unless otherwise noted).

 
 
 
 
 
 
 
 
 
 
 
 
 
 

Current Aviation Weather for John F Kennedy Memorial Airport (KASX)

The most recent METAR observation for KASX was updated at: 2153 UTC
METAR Summary (Translated METAR)
KASX
232153Z AUTO 05012KT 10SM CLR 07/M03 A3006 RMK AO2 SLP191 T00721028
KIWD
(32.5 nm SE from KASX)
232155Z AUTO 14006KT 10SM CLR 12/M06 A3001 RMK AO1
TAF Summary (Translated TAF)
KIWD
(32.5 nm SE from KASX)
231733Z 2318/2418 11007KT P6SM BKN200 FM241000 15009KT P6SM -RA OVC060 FM241600 14010G18KT 3SM -RASN OVC020 AMD LTD TO CLD VIS AND WIND
KHYR
(38.2 nm SW from KASX)
231730Z 2318/2418 17005KT P6SM BKN120 FM232100 15008G16KT P6SM OVC080 FM240400 15007KT P6SM -RA SCT030 OVC050 FM240700 14007KT 5SM -RA BR OVC025 FM241500 13010KT 3SM -RA BR OVC007
  Airport Weather Conditions for KASX

 Current Weather at ASX
45° F
Fair
Northeast winds at 13.8 mph
ASX NOAA Radar

Pressure: 30.06 in
Humidity: 49%
Wind: Northeast at 13.8 MPH (12 KT)
Dew Point: 27.0°F
Visibility: 10.00 mi


Airport Weather Forecast for KASX

Translated METAR and TAF for KASX
Translated METAR for KASX (2232 UTC 23 April 2014)
found at http://aviationweather.gov/adds/metars/
 
METAR text: KASX 232153Z AUTO 05012KT 10SM CLR 07/M03 A3006 RMK AO2 SLP191 T00721028
Conditions at: KASX (ASHLAND , WI, US) observed 2153 UTC 23 April 2014
Temperature: 7.2°C (45°F)
Dewpoint: -2.8°C (27°F) [RH = 49%]
Pressure (altimeter): 30.06 inches Hg (1018.0 mb)
[Sea-level pressure: 1019.1 mb]
Winds: from the NE (50 degrees) at 14 MPH (12 knots; 6.2 m/s)
Visibility: 10 or more miles (16+ km)
Ceiling: at least 12,000 feet AGL
Clouds: sky clear below 12,000 feet AGL
Weather: automated observation with no human augmentation;
there may or may not be significant weather present at this time
Translated TAF for KASX

There is no translated TAF available for this airport

Find All Airport Services Find A Hotel Find A Rental Car Find A Golf Course Find A Restaurant $100 Hamburger



FBO's on the Field
FBO Company Facility Photos Services Transportation Aviation Fuel Prices: Prices include tax
Catering Weather Repair Courtesy Rental Type 100LL JetA JetA+ MOGAS 8087
 
John F Kennedy Memorial Airport

This FBO has not yet been rated
FS:Phillips66
Last Updated: Apr-07
Login to update fuel prices
SS:
Contact John F Kennedy Memorial AirportMore FBO Information
 
Add another FBO Facility Photos Catering Weather Repair Courtesy Rental Type 100LL JetA JetA+ MOGAS 8087
Services Transportation Aviation Fuel Prices: Prices include tax


GlobalAir.com Airport Resource Center model-print
model-print
model-print
model-print